createdAt,value
2023-02-17T06:19:09.237Z,36.30
2023-02-17T06:20:09.199Z,33.10
2023-02-17T06:21:09.572Z,33.20
2023-02-17T06:22:09.902Z,31.20
2023-02-17T06:23:09.208Z,32.50
2023-02-17T06:24:09.268Z,31.80
2023-02-17T06:25:09.172Z,33.90
2023-02-17T06:26:09.244Z,32.80
2023-02-17T06:27:09.710Z,31.80
2023-02-17T06:28:10.244Z,31.20
2023-02-17T06:29:09.129Z,30.30
2023-02-17T06:30:09.129Z,30.50
2023-02-17T06:31:09.311Z,30.10
2023-02-17T06:32:09.073Z,29.60
2023-02-17T06:33:09.032Z,30.00
2023-02-17T06:34:09.077Z,27.70
2023-02-17T06:35:09.046Z,28.50
2023-02-17T06:36:09.011Z,27.80
2023-02-17T06:37:08.983Z,27.00
2023-02-17T06:38:09.034Z,27.40
2023-02-17T06:39:09.461Z,27.00
2023-02-17T06:40:09.388Z,28.40
2023-02-17T06:41:09.397Z,26.20
2023-02-17T06:42:08.955Z,25.30
2023-02-17T06:43:08.938Z,26.10
2023-02-17T06:44:08.911Z,26.30
2023-02-17T06:45:09.441Z,24.80
2023-02-17T06:46:09.807Z,24.90
2023-02-17T06:47:08.888Z,24.40
2023-02-17T06:48:08.860Z,24.50
2023-02-17T06:49:09.149Z,24.30
2023-02-17T06:50:08.912Z,24.10
2023-02-17T06:51:08.879Z,24.00
2023-02-17T06:52:08.888Z,25.20
2023-02-17T06:53:09.296Z,23.70
2023-02-17T06:54:08.788Z,24.00
2023-02-17T06:55:08.764Z,18.50
2023-02-17T06:56:09.816Z,22.40
2023-02-17T06:57:09.720Z,25.80
2023-02-17T06:58:08.892Z,23.60
2023-02-17T06:59:10.641Z,25.10
2023-02-17T07:00:08.721Z,25.70
2023-02-17T07:01:08.719Z,24.10
2023-02-17T07:02:08.744Z,25.60
2023-02-17T07:03:08.723Z,22.70
2023-02-17T07:04:08.656Z,21.40
2023-02-17T07:05:08.642Z,22.90
2023-02-17T07:06:08.651Z,22.80
2023-02-17T07:07:08.708Z,22.90
2023-02-17T07:08:08.635Z,23.20
2023-02-17T07:09:08.592Z,23.30
2023-02-17T07:10:08.648Z,22.70
2023-02-17T07:11:08.570Z,19.90
2023-02-17T07:12:09.728Z,22.70
2023-02-17T07:13:09.805Z,22.00
2023-02-17T07:14:09.729Z,20.90
2023-02-17T07:15:12.327Z,21.60
2023-02-17T07:16:10.853Z,21.60
2023-02-17T07:17:09.716Z,21.70
2023-02-17T07:18:09.680Z,18.90
2023-02-17T07:19:09.669Z,17.60
2023-02-17T07:20:09.672Z,20.20
2023-02-17T07:21:09.622Z,18.20
2023-02-17T07:22:09.669Z,17.10
2023-02-17T07:23:09.588Z,17.50
2023-02-17T07:24:09.683Z,17.90
2023-02-17T07:25:09.589Z,18.80
2023-02-17T07:26:09.602Z,17.80
2023-02-17T07:27:10.965Z,18.00
2023-02-17T07:28:10.593Z,17.70
2023-02-17T07:29:09.618Z,18.50
2023-02-17T07:30:09.532Z,18.20
2023-02-17T07:31:09.573Z,16.90
2023-02-17T07:32:09.523Z,16.30
2023-02-17T07:33:09.468Z,16.10
2023-02-17T07:34:09.507Z,16.40
2023-02-17T07:35:09.511Z,16.70
2023-02-17T07:36:10.151Z,15.90
2023-02-17T07:37:09.434Z,16.90
2023-02-17T07:38:09.386Z,16.60
2023-02-17T07:39:09.561Z,17.40
2023-02-17T07:40:09.560Z,17.10
2023-02-17T07:41:09.799Z,17.80
2023-02-17T07:42:09.385Z,17.10
2023-02-17T07:43:09.348Z,13.20
2023-02-17T07:44:09.459Z,15.90
2023-02-17T07:45:09.387Z,14.50
2023-02-17T07:46:09.849Z,13.60
2023-02-17T07:47:09.302Z,14.30
2023-02-17T07:48:09.340Z,12.00
2023-02-17T07:49:09.274Z,15.30
2023-02-17T07:50:09.341Z,14.00
2023-02-17T07:51:09.331Z,14.40
2023-02-17T07:52:09.248Z,14.60
2023-02-17T07:53:09.236Z,14.00
2023-02-17T07:54:09.239Z,14.60
2023-02-17T07:55:09.203Z,14.50
2023-02-17T07:56:09.273Z,12.30
2023-02-17T07:57:09.197Z,12.90
2023-02-17T07:58:09.197Z,13.30
2023-02-17T07:59:09.197Z,12.50
2023-02-17T08:00:10.848Z,12.80
2023-02-17T08:01:10.236Z,13.70
2023-02-17T08:02:09.211Z,13.70
2023-02-17T08:03:09.132Z,13.00
2023-02-17T08:04:09.119Z,12.90
2023-02-17T08:05:09.149Z,12.40
2023-02-17T08:06:09.075Z,12.00
2023-02-17T08:07:09.072Z,11.70
2023-02-17T08:08:09.111Z,12.00
2023-02-17T08:09:09.027Z,11.60
2023-02-17T08:10:09.073Z,9.70
2023-02-17T08:11:09.314Z,10.50
2023-02-17T08:12:09.011Z,11.60
2023-02-17T08:13:09.020Z,11.00
2023-02-17T08:14:08.996Z,11.60
2023-02-17T08:15:08.946Z,11.40
2023-02-17T08:16:09.373Z,8.10
2023-02-17T08:17:08.990Z,11.20
2023-02-17T08:18:08.939Z,11.10
2023-02-17T08:19:08.982Z,10.10
2023-02-17T08:20:09.426Z,10.80
2023-02-17T08:21:08.963Z,10.20
2023-02-17T08:22:08.957Z,11.00
2023-02-17T08:23:08.879Z,10.50
2023-02-17T08:24:08.928Z,9.70
2023-02-17T08:25:08.924Z,10.40
2023-02-17T08:26:09.140Z,9.80
2023-02-17T08:27:08.862Z,10.20
2023-02-17T08:28:08.894Z,7.90
2023-02-17T08:29:08.833Z,9.10
2023-02-17T08:30:08.852Z,9.70
2023-02-17T08:31:08.995Z,10.00
2023-02-17T08:32:08.904Z,9.60
2023-02-17T08:33:08.923Z,8.80
2023-02-17T08:34:08.738Z,9.20
2023-02-17T08:35:08.781Z,9.40
2023-02-17T08:36:08.817Z,9.70
2023-02-17T08:37:08.709Z,9.00
2023-02-17T08:38:08.798Z,9.20
2023-02-17T08:39:08.745Z,9.30
2023-02-17T08:40:08.674Z,8.50
2023-02-17T08:41:08.714Z,8.60
2023-02-17T08:42:08.688Z,9.80
2023-02-17T08:43:08.667Z,8.80
2023-02-17T08:44:08.716Z,9.20
2023-02-17T08:45:08.635Z,8.30
2023-02-17T08:46:08.881Z,9.30
2023-02-17T08:47:08.617Z,9.00
2023-02-17T08:48:09.362Z,9.00
2023-02-17T08:49:08.653Z,8.90
2023-02-17T08:50:08.572Z,8.40
2023-02-17T08:51:08.577Z,8.80
2023-02-17T08:52:08.672Z,9.00
2023-02-17T08:53:08.671Z,8.50
2023-02-17T08:54:08.584Z,8.30
2023-02-17T08:55:08.632Z,8.00
2023-02-17T08:56:08.758Z,8.80
2023-02-17T08:57:08.523Z,8.50
2023-02-17T08:58:08.588Z,7.80
2023-02-17T08:59:08.517Z,8.30
2023-02-17T09:00:08.608Z,6.60
2023-02-17T09:01:08.526Z,8.70
2023-02-17T09:02:08.448Z,8.10
2023-02-17T09:03:08.434Z,7.80
2023-02-17T09:04:09.474Z,7.60
2023-02-17T09:05:08.681Z,8.30
2023-02-17T09:06:08.648Z,8.00
2023-02-17T09:07:08.439Z,8.00
2023-02-17T09:08:08.366Z,7.00
2023-02-17T09:09:08.342Z,7.50
2023-02-17T09:10:08.371Z,8.10
2023-02-17T09:11:09.614Z,7.50
2023-02-17T09:12:08.345Z,7.30
2023-02-17T09:13:08.316Z,7.60
2023-02-17T09:14:08.284Z,7.60
2023-02-17T09:15:08.270Z,7.40
2023-02-17T09:16:08.775Z,7.20
2023-02-17T09:17:08.235Z,7.60
2023-02-17T09:18:08.258Z,7.30
2023-02-17T09:19:08.218Z,7.20
2023-02-17T09:20:19.529Z,7.10
2023-02-17T09:21:09.296Z,7.70
2023-02-17T09:22:08.189Z,7.20
2023-02-17T09:23:08.166Z,7.00
2023-02-17T09:24:08.153Z,7.10
2023-02-17T09:25:08.236Z,6.80
2023-02-17T09:26:08.824Z,6.90
2023-02-17T09:27:08.227Z,6.90
2023-02-17T09:28:08.130Z,6.90
2023-02-17T09:29:08.163Z,6.20
2023-02-17T09:30:08.130Z,6.70
2023-02-17T09:31:08.153Z,6.80
2023-02-17T09:32:08.254Z,7.10
2023-02-17T09:33:08.211Z,7.10
2023-02-17T09:34:08.050Z,6.80
2023-02-17T09:35:08.300Z,6.70
2023-02-17T09:36:08.378Z,6.30
2023-02-17T09:37:08.183Z,6.20
2023-02-17T09:38:08.024Z,6.40
2023-02-17T09:39:08.003Z,4.00
2023-02-17T09:40:08.073Z,6.30
2023-02-17T09:41:07.954Z,5.10
2023-02-17T09:42:07.995Z,6.20
2023-02-17T09:43:08.006Z,6.50
2023-02-17T09:44:07.999Z,6.50
2023-02-17T09:45:07.957Z,6.60
2023-02-17T09:46:08.416Z,6.40
2023-02-17T09:47:07.970Z,6.40
2023-02-17T09:48:07.921Z,5.50
2023-02-17T09:49:07.892Z,5.60
2023-02-17T09:50:07.938Z,5.80
2023-02-17T09:51:07.838Z,5.60
2023-02-17T09:52:07.844Z,5.70
2023-02-17T09:53:07.929Z,4.90
2023-02-17T09:54:07.884Z,5.00
2023-02-17T09:55:07.795Z,5.30
2023-02-17T09:56:08.169Z,5.50
2023-02-17T09:57:07.896Z,5.30
2023-02-17T09:58:08.002Z,4.70
2023-02-17T09:59:07.802Z,5.00
2023-02-17T10:00:07.746Z,5.10
2023-02-17T10:01:07.862Z,5.40
2023-02-17T10:02:07.720Z,5.00
2023-02-17T10:03:07.735Z,5.10
2023-02-17T10:04:07.772Z,5.30
2023-02-17T10:05:07.804Z,5.10
2023-02-17T10:06:08.908Z,5.60
2023-02-17T10:07:07.698Z,5.00
2023-02-17T10:08:07.683Z,5.10
2023-02-17T10:09:07.753Z,4.20
2023-02-17T10:10:07.667Z,4.00
2023-02-17T10:11:07.668Z,4.60
2023-02-17T10:12:07.646Z,4.70
2023-02-17T10:13:07.576Z,4.40
2023-02-17T10:14:07.777Z,4.30
2023-02-17T10:15:07.566Z,4.60
2023-02-17T10:16:07.958Z,3.70
2023-02-17T10:17:07.547Z,3.90
2023-02-17T10:18:07.609Z,3.80
2023-02-17T10:19:07.540Z,3.30
2023-02-17T10:20:07.590Z,3.80
2023-02-17T10:21:08.189Z,3.50
2023-02-17T10:22:07.570Z,3.30
2023-02-17T10:23:07.524Z,3.80
2023-02-17T10:24:07.473Z,3.50
2023-02-17T10:25:07.479Z,3.40
2023-02-17T10:26:07.775Z,3.50
2023-02-17T10:27:07.414Z,3.70
2023-02-17T10:28:07.518Z,3.60
2023-02-17T10:29:07.425Z,4.00
2023-02-17T10:30:08.025Z,4.00
2023-02-17T10:31:07.493Z,4.00
2023-02-17T10:32:07.501Z,4.00
2023-02-17T10:33:07.346Z,3.70
2023-02-17T10:34:07.359Z,4.40
2023-02-17T10:35:07.383Z,3.90
2023-02-17T10:36:07.580Z,4.80
2023-02-17T10:37:07.421Z,4.60
2023-02-17T10:38:07.402Z,4.40
2023-02-17T10:39:07.284Z,4.60
2023-02-17T10:40:07.306Z,4.40
2023-02-17T10:41:07.286Z,4.90
2023-02-17T10:42:07.283Z,4.80
2023-02-17T10:43:07.956Z,5.10
2023-02-17T10:44:07.246Z,5.20
2023-02-17T10:45:07.234Z,5.00
2023-02-17T10:46:07.523Z,5.00
2023-02-17T10:47:07.186Z,5.20
2023-02-17T10:48:07.847Z,5.20
2023-02-17T10:49:07.439Z,5.30
2023-02-17T10:50:07.281Z,5.20
2023-02-17T10:51:07.261Z,5.20
2023-02-17T10:52:08.009Z,4.60
2023-02-17T10:53:07.816Z,5.30
2023-02-17T10:54:07.302Z,5.50
2023-02-17T10:55:21.926Z,5.30
2023-02-17T10:56:09.973Z,5.80
2023-02-17T10:57:07.264Z,5.30
2023-02-17T10:58:07.172Z,5.30
2023-02-17T10:59:07.183Z,5.40
2023-02-17T11:00:07.081Z,5.70
2023-02-17T11:01:07.082Z,4.80
2023-02-17T11:02:07.199Z,5.10
2023-02-17T11:03:07.040Z,5.50
2023-02-17T11:04:07.099Z,5.20
2023-02-17T11:05:07.062Z,3.90
2023-02-17T11:06:07.388Z,5.60
2023-02-17T11:07:07.028Z,5.40
2023-02-17T11:08:07.039Z,5.20
2023-02-17T11:09:06.979Z,5.40
2023-02-17T11:10:07.021Z,5.50
2023-02-17T11:11:06.985Z,5.60
2023-02-17T11:12:06.990Z,5.60
2023-02-17T11:13:06.935Z,5.10
